Airfield :
LOGIN :

Register | Disclaimer

   EN    FR    IT 

 










Legend :    VFR   Marginal VFR   IFR   Intensive IFR   Very Intensive IFR
Visi :
Ceiling :
>= 8 km
>= 3000ft
5 to 8 km
1000 to 3000 ft
1500m to 5 km
500 to 1000 ft
800 to 1500m
200 to 500 ft
< 800m
< 200 ft
Symbols :   Thunderstorms  Fog  Heavy snow  Heavy precipitations  Wind > 20 kt
SIGMETs :     Misc.  Thunderstorms  Icing  Turbulence  Mountain Waves  Volcanic Ashes






- Airport Elevation : 158 ft
- IATA code : QAR


EHDL - Deelen Airbase

CURRENT METAR :
  • 281055Z AUTO 18004KT 110V230 8000 BR OVC002 08/08 Q1010 AMB

EXPIRED METARs :
  • 281025Z AUTO 19005KT 110V240 9999 BKN002 OVC004 08/08 Q1010 REDZ AMB
  • 280955Z AUTO 18003KT 110V200 8000 -RA BKN003 BKN004 FEW015CB 08/08 Q1010 RERA REDZ YLO
  • 280925Z AUTO 18005KT 120V230 3900 -RA BKN002 OVC004 08/07 Q1009 RERA REDZ AMB
  • 280855Z AUTO 19005KT 110V240 7000 DZ BKN003 OVC004 08/07 Q1009 YLO
  • 280825Z AUTO 18006KT 110V210 8000 -RA OVC003 07/07 Q1009 RERA REDZ YLO

Expired Forecast.



MET'MAP, your aeronautical weather chart ! - Copyright ORBIFLY December 2007 - Disclaimer

ORBIFLY MET'MAP TEAM :

Programming & Development : Alexandra Zaïnal
Original concept : Baudouin d'Aumeries
Technical & hardware support : Manuel Goepfert
Assistance : Marc-Olivier Méhu




SOURCES & CREDITS :

   NOAA